sensor_id;sensor_type;location;lat;lon;timestamp;P1;durP1;ratioP1;P2;durP2;ratioP2
30892;SDS011;17595;50.884;4.346;2023-03-14T00:00:35;7.85;;;1.75;;
30892;SDS011;17595;50.884;4.346;2023-03-14T00:03:01;6.43;;;1.27;;
30892;SDS011;17595;50.884;4.346;2023-03-14T00:05:26;5.45;;;1.45;;
30892;SDS011;17595;50.884;4.346;2023-03-14T00:07:52;7.45;;;1.40;;
30892;SDS011;17595;50.884;4.346;2023-03-14T00:10:18;10.30;;;2.10;;
30892;SDS011;17595;50.884;4.346;2023-03-14T00:12:44;6.10;;;1.50;;
30892;SDS011;17595;50.884;4.346;2023-03-14T00:15:10;6.50;;;1.75;;
30892;SDS011;17595;50.884;4.346;2023-03-14T00:17:37;5.38;;;1.90;;
30892;SDS011;17595;50.884;4.346;2023-03-14T00:20:03;8.63;;;1.98;;
30892;SDS011;17595;50.884;4.346;2023-03-14T00:22:34;7.20;;;1.63;;
30892;SDS011;17595;50.884;4.346;2023-03-14T00:25:00;7.15;;;1.40;;
30892;SDS011;17595;50.884;4.346;2023-03-14T00:27:27;9.32;;;1.88;;
30892;SDS011;17595;50.884;4.346;2023-03-14T00:29:53;11.20;;;1.83;;
30892;SDS011;17595;50.884;4.346;2023-03-14T00:32:18;8.52;;;1.67;;
30892;SDS011;17595;50.884;4.346;2023-03-14T00:34:44;8.95;;;1.55;;
30892;SDS011;17595;50.884;4.346;2023-03-14T00:37:10;7.32;;;1.63;;
30892;SDS011;17595;50.884;4.346;2023-03-14T00:39:35;9.25;;;1.90;;
30892;SDS011;17595;50.884;4.346;2023-03-14T00:42:01;11.85;;;3.00;;
30892;SDS011;17595;50.884;4.346;2023-03-14T00:44:27;9.73;;;2.65;;
30892;SDS011;17595;50.884;4.346;2023-03-14T00:46:52;11.30;;;1.73;;
30892;SDS011;17595;50.884;4.346;2023-03-14T00:49:18;8.63;;;1.92;;
30892;SDS011;17595;50.884;4.346;2023-03-14T00:51:44;12.93;;;2.05;;
30892;SDS011;17595;50.884;4.346;2023-03-14T00:54:09;7.10;;;1.55;;
30892;SDS011;17595;50.884;4.346;2023-03-14T00:56:35;13.00;;;1.98;;
30892;SDS011;17595;50.884;4.346;2023-03-14T00:59:01;10.35;;;1.85;;
30892;SDS011;17595;50.884;4.346;2023-03-14T01:01:26;7.75;;;2.03;;
30892;SDS011;17595;50.884;4.346;2023-03-14T01:03:53;8.98;;;2.45;;
30892;SDS011;17595;50.884;4.346;2023-03-14T01:06:21;12.05;;;1.75;;
30892;SDS011;17595;50.884;4.346;2023-03-14T01:08:49;12.93;;;2.17;;
30892;SDS011;17595;50.884;4.346;2023-03-14T01:11:17;7.70;;;2.05;;
30892;SDS011;17595;50.884;4.346;2023-03-14T01:13:46;10.05;;;2.17;;
30892;SDS011;17595;50.884;4.346;2023-03-14T01:16:12;9.00;;;1.85;;
30892;SDS011;17595;50.884;4.346;2023-03-14T01:18:39;12.77;;;2.60;;
30892;SDS011;17595;50.884;4.346;2023-03-14T01:21:10;10.40;;;2.38;;
30892;SDS011;17595;50.884;4.346;2023-03-14T01:23:38;11.85;;;2.53;;
30892;SDS011;17595;50.884;4.346;2023-03-14T01:26:03;13.65;;;2.00;;
30892;SDS011;17595;50.884;4.346;2023-03-14T01:28:29;11.75;;;3.50;;
30892;SDS011;17595;50.884;4.346;2023-03-14T01:30:55;12.95;;;2.40;;
30892;SDS011;17595;50.884;4.346;2023-03-14T01:33:20;15.38;;;2.70;;
30892;SDS011;17595;50.884;4.346;2023-03-14T01:35:49;14.15;;;3.25;;
30892;SDS011;17595;50.884;4.346;2023-03-14T01:38:15;16.05;;;2.75;;
30892;SDS011;17595;50.884;4.346;2023-03-14T01:40:44;10.25;;;2.00;;
30892;SDS011;17595;50.884;4.346;2023-03-14T01:43:14;10.82;;;2.60;;
30892;SDS011;17595;50.884;4.346;2023-03-14T01:48:31;9.50;;;1.77;;
30892;SDS011;17595;50.884;4.346;2023-03-14T01:51:11;14.85;;;1.98;;
30892;SDS011;17595;50.884;4.346;2023-03-14T01:53:45;11.23;;;2.72;;
30892;SDS011;17595;50.884;4.346;2023-03-14T01:56:13;7.88;;;1.70;;
30892;SDS011;17595;50.884;4.346;2023-03-14T01:58:40;8.32;;;1.70;;
30892;SDS011;17595;50.884;4.346;2023-03-14T02:01:08;6.28;;;1.13;;
30892;SDS011;17595;50.884;4.346;2023-03-14T02:03:35;7.85;;;1.35;;
30892;SDS011;17595;50.884;4.346;2023-03-14T02:06:08;7.07;;;1.42;;
30892;SDS011;17595;50.884;4.346;2023-03-14T02:08:36;5.40;;;1.20;;
30892;SDS011;17595;50.884;4.346;2023-03-14T02:11:04;6.97;;;1.05;;
30892;SDS011;17595;50.884;4.346;2023-03-14T02:13:32;7.13;;;1.10;;
30892;SDS011;17595;50.884;4.346;2023-03-14T02:15:58;4.75;;;1.08;;
30892;SDS011;17595;50.884;4.346;2023-03-14T02:18:23;4.88;;;1.40;;
30892;SDS011;17595;50.884;4.346;2023-03-14T02:21:12;6.53;;;1.30;;
30892;SDS011;17595;50.884;4.346;2023-03-14T02:23:53;4.13;;;0.70;;
30892;SDS011;17595;50.884;4.346;2023-03-14T02:26:43;7.28;;;0.90;;
30892;SDS011;17595;50.884;4.346;2023-03-14T02:29:25;4.78;;;1.00;;
30892;SDS011;17595;50.884;4.346;2023-03-14T02:31:51;3.38;;;1.05;;
30892;SDS011;17595;50.884;4.346;2023-03-14T02:34:17;6.13;;;1.02;;
30892;SDS011;17595;50.884;4.346;2023-03-14T02:36:43;5.07;;;0.95;;
30892;SDS011;17595;50.884;4.346;2023-03-14T02:39:14;4.88;;;0.90;;
30892;SDS011;17595;50.884;4.346;2023-03-14T02:41:46;4.57;;;1.00;;
30892;SDS011;17595;50.884;4.346;2023-03-14T02:44:14;5.70;;;1.02;;
30892;SDS011;17595;50.884;4.346;2023-03-14T02:46:39;6.10;;;0.93;;
30892;SDS011;17595;50.884;4.346;2023-03-14T02:49:08;7.13;;;1.25;;
30892;SDS011;17595;50.884;4.346;2023-03-14T02:51:37;5.57;;;1.30;;
30892;SDS011;17595;50.884;4.346;2023-03-14T02:54:04;4.13;;;1.38;;
30892;SDS011;17595;50.884;4.346;2023-03-14T02:56:31;5.07;;;0.98;;
30892;SDS011;17595;50.884;4.346;2023-03-14T02:58:57;4.28;;;1.58;;
30892;SDS011;17595;50.884;4.346;2023-03-14T03:01:23;8.38;;;1.95;;
30892;SDS011;17595;50.884;4.346;2023-03-14T03:03:49;8.75;;;2.80;;
30892;SDS011;17595;50.884;4.346;2023-03-14T03:06:14;9.55;;;2.50;;
30892;SDS011;17595;50.884;4.346;2023-03-14T03:08:41;8.15;;;2.42;;
30892;SDS011;17595;50.884;4.346;2023-03-14T03:11:06;9.65;;;2.72;;
30892;SDS011;17595;50.884;4.346;2023-03-14T03:13:32;8.77;;;2.85;;
30892;SDS011;17595;50.884;4.346;2023-03-14T03:15:59;14.95;;;4.13;;
30892;SDS011;17595;50.884;4.346;2023-03-14T03:18:24;10.35;;;4.40;;
30892;SDS011;17595;50.884;4.346;2023-03-14T03:20:50;12.55;;;5.70;;
30892;SDS011;17595;50.884;4.346;2023-03-14T03:23:15;14.25;;;6.85;;
30892;SDS011;17595;50.884;4.346;2023-03-14T03:25:41;11.27;;;7.38;;
30892;SDS011;17595;50.884;4.346;2023-03-14T03:28:07;12.25;;;5.85;;
30892;SDS011;17595;50.884;4.346;2023-03-14T03:30:39;11.77;;;5.50;;
30892;SDS011;17595;50.884;4.346;2023-03-14T03:33:05;10.68;;;4.47;;
30892;SDS011;17595;50.884;4.346;2023-03-14T03:35:31;11.38;;;3.88;;
30892;SDS011;17595;50.884;4.346;2023-03-14T03:37:56;12.50;;;3.63;;
30892;SDS011;17595;50.884;4.346;2023-03-14T03:40:22;13.38;;;3.55;;
30892;SDS011;17595;50.884;4.346;2023-03-14T03:42:47;7.65;;;2.80;;
30892;SDS011;17595;50.884;4.346;2023-03-14T03:45:13;9.32;;;2.97;;
30892;SDS011;17595;50.884;4.346;2023-03-14T03:47:38;7.40;;;2.40;;
30892;SDS011;17595;50.884;4.346;2023-03-14T03:50:04;11.15;;;3.08;;
30892;SDS011;17595;50.884;4.346;2023-03-14T03:52:30;12.63;;;3.20;;
30892;SDS011;17595;50.884;4.346;2023-03-14T03:54:56;9.25;;;2.30;;
30892;SDS011;17595;50.884;4.346;2023-03-14T03:57:22;8.75;;;2.85;;
30892;SDS011;17595;50.884;4.346;2023-03-14T03:59:48;13.02;;;3.40;;
30892;SDS011;17595;50.884;4.346;2023-03-14T04:02:13;13.93;;;3.63;;
30892;SDS011;17595;50.884;4.346;2023-03-14T04:04:39;15.02;;;3.60;;
30892;SDS011;17595;50.884;4.346;2023-03-14T04:07:04;10.77;;;3.65;;
30892;SDS011;17595;50.884;4.346;2023-03-14T04:09:30;11.20;;;3.15;;
30892;SDS011;17595;50.884;4.346;2023-03-14T04:11:56;11.20;;;3.13;;
30892;SDS011;17595;50.884;4.346;2023-03-14T04:14:22;10.10;;;3.28;;
30892;SDS011;17595;50.884;4.346;2023-03-14T04:16:48;10.10;;;3.38;;
30892;SDS011;17595;50.884;4.346;2023-03-14T04:19:13;12.07;;;3.20;;
30892;SDS011;17595;50.884;4.346;2023-03-14T04:21:39;9.20;;;3.17;;
30892;SDS011;17595;50.884;4.346;2023-03-14T04:24:09;8.88;;;2.30;;
30892;SDS011;17595;50.884;4.346;2023-03-14T04:26:35;8.25;;;2.65;;
30892;SDS011;17595;50.884;4.346;2023-03-14T04:29:00;7.30;;;1.95;;
30892;SDS011;17595;50.884;4.346;2023-03-14T04:31:26;6.47;;;2.17;;
30892;SDS011;17595;50.884;4.346;2023-03-14T04:33:52;9.13;;;2.47;;
30892;SDS011;17595;50.884;4.346;2023-03-14T04:36:17;5.93;;;1.38;;
30892;SDS011;17595;50.884;4.346;2023-03-14T04:38:43;5.30;;;1.58;;
30892;SDS011;17595;50.884;4.346;2023-03-14T04:41:08;8.45;;;1.35;;
30892;SDS011;17595;50.884;4.346;2023-03-14T04:43:34;3.00;;;1.30;;
30892;SDS011;17595;50.884;4.346;2023-03-14T04:45:59;8.48;;;1.15;;
30892;SDS011;17595;50.884;4.346;2023-03-14T04:48:25;2.95;;;1.08;;
30892;SDS011;17595;50.884;4.346;2023-03-14T04:50:51;4.30;;;1.25;;
30892;SDS011;17595;50.884;4.346;2023-03-14T04:53:18;3.05;;;0.98;;
30892;SDS011;17595;50.884;4.346;2023-03-14T04:55:53;5.97;;;1.05;;
30892;SDS011;17595;50.884;4.346;2023-03-14T04:58:20;6.15;;;1.70;;
30892;SDS011;17595;50.884;4.346;2023-03-14T05:00:47;3.90;;;1.40;;
30892;SDS011;17595;50.884;4.346;2023-03-14T05:03:14;3.15;;;1.15;;
30892;SDS011;17595;50.884;4.346;2023-03-14T05:05:41;3.05;;;1.30;;
30892;SDS011;17595;50.884;4.346;2023-03-14T05:08:06;3.72;;;1.00;;
30892;SDS011;17595;50.884;4.346;2023-03-14T05:10:32;6.32;;;1.50;;
30892;SDS011;17595;50.884;4.346;2023-03-14T05:12:58;4.03;;;1.23;;
30892;SDS011;17595;50.884;4.346;2023-03-14T05:15:23;3.83;;;1.67;;
30892;SDS011;17595;50.884;4.346;2023-03-14T05:17:49;5.15;;;1.60;;
30892;SDS011;17595;50.884;4.346;2023-03-14T05:20:15;2.08;;;1.38;;
30892;SDS011;17595;50.884;4.346;2023-03-14T05:22:41;4.45;;;2.20;;
30892;SDS011;17595;50.884;4.346;2023-03-14T05:25:07;6.85;;;1.58;;
30892;SDS011;17595;50.884;4.346;2023-03-14T05:27:34;2.55;;;1.73;;
30892;SDS011;17595;50.884;4.346;2023-03-14T05:30:00;5.50;;;1.70;;
30892;SDS011;17595;50.884;4.346;2023-03-14T05:32:30;4.05;;;1.38;;
30892;SDS011;17595;50.884;4.346;2023-03-14T05:34:55;2.80;;;1.40;;
30892;SDS011;17595;50.884;4.346;2023-03-14T05:37:24;6.07;;;1.60;;
30892;SDS011;17595;50.884;4.346;2023-03-14T05:42:18;5.40;;;1.80;;
30892;SDS011;17595;50.884;4.346;2023-03-14T05:44:44;2.55;;;1.35;;
30892;SDS011;17595;50.884;4.346;2023-03-14T05:47:09;4.47;;;1.88;;
30892;SDS011;17595;50.884;4.346;2023-03-14T05:49:35;5.68;;;1.75;;
30892;SDS011;17595;50.884;4.346;2023-03-14T05:52:01;3.45;;;1.90;;
30892;SDS011;17595;50.884;4.346;2023-03-14T05:54:26;3.67;;;1.80;;
30892;SDS011;17595;50.884;4.346;2023-03-14T05:56:52;3.22;;;1.63;;
30892;SDS011;17595;50.884;4.346;2023-03-14T05:59:17;3.88;;;1.92;;
30892;SDS011;17595;50.884;4.346;2023-03-14T06:01:43;5.20;;;2.05;;
30892;SDS011;17595;50.884;4.346;2023-03-14T06:04:09;2.33;;;1.65;;
30892;SDS011;17595;50.884;4.346;2023-03-14T06:06:34;5.68;;;1.88;;
30892;SDS011;17595;50.884;4.346;2023-03-14T06:09:00;2.78;;;1.80;;
30892;SDS011;17595;50.884;4.346;2023-03-14T06:11:26;4.07;;;1.98;;
30892;SDS011;17595;50.884;4.346;2023-03-14T06:13:52;4.15;;;2.05;;
30892;SDS011;17595;50.884;4.346;2023-03-14T06:16:17;3.80;;;2.35;;
30892;SDS011;17595;50.884;4.346;2023-03-14T06:18:43;5.97;;;2.53;;
30892;SDS011;17595;50.884;4.346;2023-03-14T06:21:11;4.22;;;2.60;;
30892;SDS011;17595;50.884;4.346;2023-03-14T06:23:37;5.40;;;2.60;;
30892;SDS011;17595;50.884;4.346;2023-03-14T06:26:03;5.65;;;2.38;;
30892;SDS011;17595;50.884;4.346;2023-03-14T06:28:29;4.50;;;2.05;;
30892;SDS011;17595;50.884;4.346;2023-03-14T06:30:55;2.78;;;2.20;;
30892;SDS011;17595;50.884;4.346;2023-03-14T06:33:20;3.80;;;2.05;;
30892;SDS011;17595;50.884;4.346;2023-03-14T06:35:46;4.45;;;1.77;;
30892;SDS011;17595;50.884;4.346;2023-03-14T06:38:12;4.22;;;2.42;;
30892;SDS011;17595;50.884;4.346;2023-03-14T06:40:37;3.38;;;1.77;;
30892;SDS011;17595;50.884;4.346;2023-03-14T06:43:03;4.70;;;2.13;;
30892;SDS011;17595;50.884;4.346;2023-03-14T06:45:28;2.90;;;1.38;;
30892;SDS011;17595;50.884;4.346;2023-03-14T06:47:54;4.50;;;1.98;;
30892;SDS011;17595;50.884;4.346;2023-03-14T06:50:19;4.97;;;2.05;;
30892;SDS011;17595;50.884;4.346;2023-03-14T06:52:47;3.72;;;2.20;;
30892;SDS011;17595;50.884;4.346;2023-03-14T06:55:13;3.72;;;2.22;;
30892;SDS011;17595;50.884;4.346;2023-03-14T06:57:39;3.70;;;1.83;;
30892;SDS011;17595;50.884;4.346;2023-03-14T07:00:05;4.95;;;2.17;;
30892;SDS011;17595;50.884;4.346;2023-03-14T07:02:31;5.97;;;2.45;;
30892;SDS011;17595;50.884;4.346;2023-03-14T07:04:57;4.93;;;2.95;;
30892;SDS011;17595;50.884;4.346;2023-03-14T07:07:22;9.25;;;3.30;;
30892;SDS011;17595;50.884;4.346;2023-03-14T07:09:48;7.10;;;3.35;;
30892;SDS011;17595;50.884;4.346;2023-03-14T07:12:13;10.88;;;3.88;;
30892;SDS011;17595;50.884;4.346;2023-03-14T07:14:39;4.10;;;1.88;;
30892;SDS011;17595;50.884;4.346;2023-03-14T07:17:04;2.28;;;1.60;;
30892;SDS011;17595;50.884;4.346;2023-03-14T07:19:30;3.70;;;1.88;;
30892;SDS011;17595;50.884;4.346;2023-03-14T07:21:56;6.22;;;2.13;;
30892;SDS011;17595;50.884;4.346;2023-03-14T07:24:22;7.43;;;2.33;;
30892;SDS011;17595;50.884;4.346;2023-03-14T07:26:47;8.73;;;2.17;;
30892;SDS011;17595;50.884;4.346;2023-03-14T07:29:13;6.60;;;2.30;;
30892;SDS011;17595;50.884;4.346;2023-03-14T07:31:38;4.18;;;1.90;;
30892;SDS011;17595;50.884;4.346;2023-03-14T07:34:04;10.07;;;2.97;;
30892;SDS011;17595;50.884;4.346;2023-03-14T07:36:29;4.30;;;2.17;;
30892;SDS011;17595;50.884;4.346;2023-03-14T07:38:55;8.38;;;2.28;;
30892;SDS011;17595;50.884;4.346;2023-03-14T07:41:21;5.60;;;2.47;;
30892;SDS011;17595;50.884;4.346;2023-03-14T07:43:47;5.43;;;2.50;;
30892;SDS011;17595;50.884;4.346;2023-03-14T07:46:13;4.75;;;3.22;;
30892;SDS011;17595;50.884;4.346;2023-03-14T07:48:40;5.25;;;2.90;;
30892;SDS011;17595;50.884;4.346;2023-03-14T07:51:05;9.52;;;4.00;;
30892;SDS011;17595;50.884;4.346;2023-03-14T07:53:31;6.93;;;3.67;;
30892;SDS011;17595;50.884;4.346;2023-03-14T07:55:57;7.53;;;4.40;;
30892;SDS011;17595;50.884;4.346;2023-03-14T07:58:22;8.55;;;5.25;;
30892;SDS011;17595;50.884;4.346;2023-03-14T08:00:48;12.20;;;5.00;;
30892;SDS011;17595;50.884;4.346;2023-03-14T08:03:15;11.23;;;5.05;;
30892;SDS011;17595;50.884;4.346;2023-03-14T08:05:41;7.57;;;5.43;;
30892;SDS011;17595;50.884;4.346;2023-03-14T08:08:07;9.63;;;5.22;;
30892;SDS011;17595;50.884;4.346;2023-03-14T08:10:33;10.90;;;4.95;;
30892;SDS011;17595;50.884;4.346;2023-03-14T08:12:59;7.30;;;4.45;;
30892;SDS011;17595;50.884;4.346;2023-03-14T08:15:26;10.70;;;4.80;;
30892;SDS011;17595;50.884;4.346;2023-03-14T08:17:53;7.80;;;4.10;;
30892;SDS011;17595;50.884;4.346;2023-03-14T08:20:19;8.57;;;3.97;;
30892;SDS011;17595;50.884;4.346;2023-03-14T08:22:46;9.73;;;4.03;;
30892;SDS011;17595;50.884;4.346;2023-03-14T08:25:12;7.90;;;3.97;;
30892;SDS011;17595;50.884;4.346;2023-03-14T08:27:38;8.93;;;3.67;;
30892;SDS011;17595;50.884;4.346;2023-03-14T08:30:04;6.10;;;4.05;;
30892;SDS011;17595;50.884;4.346;2023-03-14T08:32:31;7.25;;;4.70;;
30892;SDS011;17595;50.884;4.346;2023-03-14T08:34:57;7.18;;;3.78;;
30892;SDS011;17595;50.884;4.346;2023-03-14T08:37:23;6.82;;;3.97;;
30892;SDS011;17595;50.884;4.346;2023-03-14T08:39:49;7.28;;;3.92;;
30892;SDS011;17595;50.884;4.346;2023-03-14T08:42:16;8.02;;;3.70;;
30892;SDS011;17595;50.884;4.346;2023-03-14T08:44:42;7.72;;;3.60;;
30892;SDS011;17595;50.884;4.346;2023-03-14T08:47:07;9.73;;;4.18;;
30892;SDS011;17595;50.884;4.346;2023-03-14T08:49:33;5.40;;;3.33;;
30892;SDS011;17595;50.884;4.346;2023-03-14T08:51:58;5.18;;;3.10;;
30892;SDS011;17595;50.884;4.346;2023-03-14T08:54:26;10.60;;;4.32;;
30892;SDS011;17595;50.884;4.346;2023-03-14T08:56:51;4.07;;;3.25;;
30892;SDS011;17595;50.884;4.346;2023-03-14T08:59:17;8.52;;;3.40;;
30892;SDS011;17595;50.884;4.346;2023-03-14T09:01:43;7.13;;;4.10;;
30892;SDS011;17595;50.884;4.346;2023-03-14T09:04:08;12.68;;;3.95;;
30892;SDS011;17595;50.884;4.346;2023-03-14T09:06:34;6.60;;;3.95;;
30892;SDS011;17595;50.884;4.346;2023-03-14T09:09:00;8.13;;;4.30;;
30892;SDS011;17595;50.884;4.346;2023-03-14T09:11:26;10.57;;;5.45;;
30892;SDS011;17595;50.884;4.346;2023-03-14T09:13:52;9.30;;;5.13;;
30892;SDS011;17595;50.884;4.346;2023-03-14T09:16:17;10.00;;;5.20;;
30892;SDS011;17595;50.884;4.346;2023-03-14T09:18:43;13.18;;;5.22;;
30892;SDS011;17595;50.884;4.346;2023-03-14T09:21:09;12.43;;;5.95;;
30892;SDS011;17595;50.884;4.346;2023-03-14T09:23:34;12.63;;;5.55;;
30892;SDS011;17595;50.884;4.346;2023-03-14T09:26:00;15.30;;;4.78;;
30892;SDS011;17595;50.884;4.346;2023-03-14T09:28:25;14.95;;;4.15;;
30892;SDS011;17595;50.884;4.346;2023-03-14T09:30:51;11.18;;;4.00;;
30892;SDS011;17595;50.884;4.346;2023-03-14T09:33:17;13.77;;;3.78;;
30892;SDS011;17595;50.884;4.346;2023-03-14T09:35:43;16.77;;;4.18;;
30892;SDS011;17595;50.884;4.346;2023-03-14T09:38:09;11.90;;;3.78;;
30892;SDS011;17595;50.884;4.346;2023-03-14T09:40:35;9.82;;;3.20;;
30892;SDS011;17595;50.884;4.346;2023-03-14T09:43:02;10.25;;;3.45;;
30892;SDS011;17595;50.884;4.346;2023-03-14T09:45:31;10.85;;;3.22;;
30892;SDS011;17595;50.884;4.346;2023-03-14T09:48:02;6.88;;;2.88;;
30892;SDS011;17595;50.884;4.346;2023-03-14T09:50:39;7.55;;;3.05;;
30892;SDS011;17595;50.884;4.346;2023-03-14T09:53:14;12.05;;;3.97;;
30892;SDS011;17595;50.884;4.346;2023-03-14T09:55:46;9.13;;;3.43;;
30892;SDS011;17595;50.884;4.346;2023-03-14T09:58:19;14.05;;;3.70;;
30892;SDS011;17595;50.884;4.346;2023-03-14T10:00:45;6.22;;;2.67;;
30892;SDS011;17595;50.884;4.346;2023-03-14T10:03:19;9.77;;;3.03;;
30892;SDS011;17595;50.884;4.346;2023-03-14T10:05:56;10.30;;;2.88;;
30892;SDS011;17595;50.884;4.346;2023-03-14T10:08:22;7.85;;;3.42;;
30892;SDS011;17595;50.884;4.346;2023-03-14T10:10:48;8.65;;;2.92;;
30892;SDS011;17595;50.884;4.346;2023-03-14T10:15:55;11.05;;;2.67;;
30892;SDS011;17595;50.884;4.346;2023-03-14T10:18:33;14.30;;;3.00;;
30892;SDS011;17595;50.884;4.346;2023-03-14T10:21:16;13.25;;;3.03;;
30892;SDS011;17595;50.884;4.346;2023-03-14T10:23:43;10.35;;;2.33;;
30892;SDS011;17595;50.884;4.346;2023-03-14T10:26:16;12.30;;;2.13;;
30892;SDS011;17595;50.884;4.346;2023-03-14T10:28:51;7.43;;;2.40;;
30892;SDS011;17595;50.884;4.346;2023-03-14T10:31:17;10.25;;;2.67;;
30892;SDS011;17595;50.884;4.346;2023-03-14T10:33:57;6.20;;;2.22;;
30892;SDS011;17595;50.884;4.346;2023-03-14T10:36:25;5.07;;;1.40;;
30892;SDS011;17595;50.884;4.346;2023-03-14T10:41:53;8.95;;;2.13;;
30892;SDS011;17595;50.884;4.346;2023-03-14T10:44:40;9.48;;;2.65;;
30892;SDS011;17595;50.884;4.346;2023-03-14T10:47:12;9.95;;;2.50;;
30892;SDS011;17595;50.884;4.346;2023-03-14T10:49:44;10.20;;;2.35;;
30892;SDS011;17595;50.884;4.346;2023-03-14T10:54:40;9.57;;;1.90;;
30892;SDS011;17595;50.884;4.346;2023-03-14T10:57:06;9.23;;;2.53;;
30892;SDS011;17595;50.884;4.346;2023-03-14T10:59:35;7.40;;;2.33;;
30892;SDS011;17595;50.884;4.346;2023-03-14T11:02:17;8.73;;;2.22;;
30892;SDS011;17595;50.884;4.346;2023-03-14T11:05:00;7.50;;;1.73;;
30892;SDS011;17595;50.884;4.346;2023-03-14T11:07:49;5.97;;;1.80;;
30892;SDS011;17595;50.884;4.346;2023-03-14T11:15:41;8.85;;;1.60;;
30892;SDS011;17595;50.884;4.346;2023-03-14T11:29:22;1.85;;;0.80;;
30892;SDS011;17595;50.884;4.346;2023-03-14T11:32:01;6.90;;;1.13;;
30892;SDS011;17595;50.884;4.346;2023-03-14T11:34:36;5.85;;;0.88;;
30892;SDS011;17595;50.884;4.346;2023-03-14T11:39:47;4.72;;;1.10;;
30892;SDS011;17595;50.884;4.346;2023-03-14T11:42:24;2.83;;;1.00;;
30892;SDS011;17595;50.884;4.346;2023-03-14T11:44:51;1.00;;;0.50;;
30892;SDS011;17595;50.884;4.346;2023-03-14T11:47:20;1.20;;;0.90;;
30892;SDS011;17595;50.884;4.346;2023-03-14T11:49:53;2.53;;;0.68;;
30892;SDS011;17595;50.884;4.346;2023-03-14T11:52:25;2.33;;;0.68;;
30892;SDS011;17595;50.884;4.346;2023-03-14T11:55:44;2.25;;;0.73;;
30892;SDS011;17595;50.884;4.346;2023-03-14T11:57:53;1.55;;;0.50;;
30892;SDS011;17595;50.884;4.346;2023-03-14T12:00:23;3.75;;;0.93;;
30892;SDS011;17595;50.884;4.346;2023-03-14T12:13:19;7.20;;;1.63;;
30892;SDS011;17595;50.884;4.346;2023-03-14T12:15:55;2.78;;;1.23;;
30892;SDS011;17595;50.884;4.346;2023-03-14T12:18:30;4.88;;;4.13;;
30892;SDS011;17595;50.884;4.346;2023-03-14T12:21:00;4.78;;;1.23;;
30892;SDS011;17595;50.884;4.346;2023-03-14T12:23:28;5.22;;;1.50;;
30892;SDS011;17595;50.884;4.346;2023-03-14T12:26:12;4.15;;;1.48;;
30892;SDS011;17595;50.884;4.346;2023-03-14T12:28:48;3.08;;;1.33;;
30892;SDS011;17595;50.884;4.346;2023-03-14T12:31:38;3.28;;;1.30;;
30892;SDS011;17595;50.884;4.346;2023-03-14T12:42:09;3.22;;;1.80;;
30892;SDS011;17595;50.884;4.346;2023-03-14T12:47:50;4.65;;;2.15;;
30892;SDS011;17595;50.884;4.346;2023-03-14T12:50:20;3.10;;;1.40;;
30892;SDS011;17595;50.884;4.346;2023-03-14T12:55:40;5.60;;;1.30;;
30892;SDS011;17595;50.884;4.346;2023-03-14T12:58:31;1.98;;;1.10;;
30892;SDS011;17595;50.884;4.346;2023-03-14T13:01:04;2.80;;;1.20;;
30892;SDS011;17595;50.884;4.346;2023-03-14T13:03:51;5.22;;;1.50;;
30892;SDS011;17595;50.884;4.346;2023-03-14T13:11:54;4.05;;;1.85;;
30892;SDS011;17595;50.884;4.346;2023-03-14T13:14:22;4.68;;;2.28;;
30892;SDS011;17595;50.884;4.346;2023-03-14T13:16:48;10.45;;;3.00;;
30892;SDS011;17595;50.884;4.346;2023-03-14T13:19:17;7.65;;;2.13;;
30892;SDS011;17595;50.884;4.346;2023-03-14T13:21:46;10.70;;;3.20;;
30892;SDS011;17595;50.884;4.346;2023-03-14T13:24:22;8.25;;;2.80;;
30892;SDS011;17595;50.884;4.346;2023-03-14T13:26:51;13.57;;;2.72;;
30892;SDS011;17595;50.884;4.346;2023-03-14T13:29:19;13.60;;;3.20;;
30892;SDS011;17595;50.884;4.346;2023-03-14T13:31:51;9.10;;;2.35;;
30892;SDS011;17595;50.884;4.346;2023-03-14T13:34:24;14.07;;;2.55;;
30892;SDS011;17595;50.884;4.346;2023-03-14T13:36:54;9.23;;;1.92;;
30892;SDS011;17595;50.884;4.346;2023-03-14T13:39:21;12.35;;;2.45;;
30892;SDS011;17595;50.884;4.346;2023-03-14T13:41:50;15.10;;;2.67;;
30892;SDS011;17595;50.884;4.346;2023-03-14T13:46:59;20.33;;;3.35;;
30892;SDS011;17595;50.884;4.346;2023-03-14T13:49:26;19.92;;;4.50;;
30892;SDS011;17595;50.884;4.346;2023-03-14T13:51:56;21.77;;;3.45;;
30892;SDS011;17595;50.884;4.346;2023-03-14T13:54:22;21.48;;;2.97;;
30892;SDS011;17595;50.884;4.346;2023-03-14T13:56:58;13.15;;;2.50;;
30892;SDS011;17595;50.884;4.346;2023-03-14T13:59:29;22.38;;;3.10;;
30892;SDS011;17595;50.884;4.346;2023-03-14T14:01:57;21.20;;;3.13;;
30892;SDS011;17595;50.884;4.346;2023-03-14T14:04:25;19.55;;;3.28;;
30892;SDS011;17595;50.884;4.346;2023-03-14T14:06:55;24.75;;;3.00;;
30892;SDS011;17595;50.884;4.346;2023-03-14T14:12:13;19.02;;;2.60;;
30892;SDS011;17595;50.884;4.346;2023-03-14T14:17:15;11.70;;;1.90;;
30892;SDS011;17595;50.884;4.346;2023-03-14T14:19:44;11.50;;;1.83;;
30892;SDS011;17595;50.884;4.346;2023-03-14T14:22:11;15.23;;;2.08;;
30892;SDS011;17595;50.884;4.346;2023-03-14T14:24:38;14.30;;;1.90;;
30892;SDS011;17595;50.884;4.346;2023-03-14T14:29:41;15.55;;;1.85;;
30892;SDS011;17595;50.884;4.346;2023-03-14T14:35:06;13.57;;;1.92;;
30892;SDS011;17595;50.884;4.346;2023-03-14T14:37:33;12.43;;;1.52;;
30892;SDS011;17595;50.884;4.346;2023-03-14T14:42:35;8.82;;;1.65;;
30892;SDS011;17595;50.884;4.346;2023-03-14T14:45:05;7.10;;;1.27;;
30892;SDS011;17595;50.884;4.346;2023-03-14T14:47:47;2.17;;;0.63;;
30892;SDS011;17595;50.884;4.346;2023-03-14T14:50:30;6.78;;;1.25;;
30892;SDS011;17595;50.884;4.346;2023-03-14T14:52:58;3.35;;;0.45;;
30892;SDS011;17595;50.884;4.346;2023-03-14T14:55:28;1.95;;;0.50;;
30892;SDS011;17595;50.884;4.346;2023-03-14T14:57:57;1.27;;;0.50;;
30892;SDS011;17595;50.884;4.346;2023-03-14T15:00:24;2.35;;;0.40;;
30892;SDS011;17595;50.884;4.346;2023-03-14T15:02:52;4.85;;;0.60;;
30892;SDS011;17595;50.884;4.346;2023-03-14T15:05:21;2.25;;;0.50;;
30892;SDS011;17595;50.884;4.346;2023-03-14T15:07:48;2.07;;;0.53;;
30892;SDS011;17595;50.884;4.346;2023-03-14T15:10:15;1.33;;;0.52;;
30892;SDS011;17595;50.884;4.346;2023-03-14T15:12:43;1.55;;;0.57;;
30892;SDS011;17595;50.884;4.346;2023-03-14T15:15:09;2.97;;;0.70;;
30892;SDS011;17595;50.884;4.346;2023-03-14T15:17:35;2.78;;;0.60;;
30892;SDS011;17595;50.884;4.346;2023-03-14T15:20:03;2.35;;;0.70;;
30892;SDS011;17595;50.884;4.346;2023-03-14T15:22:29;2.85;;;0.88;;
30892;SDS011;17595;50.884;4.346;2023-03-14T15:24:55;2.85;;;0.90;;
30892;SDS011;17595;50.884;4.346;2023-03-14T15:27:21;4.68;;;0.93;;
30892;SDS011;17595;50.884;4.346;2023-03-14T15:29:47;1.88;;;0.50;;
30892;SDS011;17595;50.884;4.346;2023-03-14T15:32:13;3.03;;;0.80;;
30892;SDS011;17595;50.884;4.346;2023-03-14T15:34:41;5.55;;;0.82;;
30892;SDS011;17595;50.884;4.346;2023-03-14T15:37:14;5.03;;;1.00;;
30892;SDS011;17595;50.884;4.346;2023-03-14T15:39:42;3.78;;;0.70;;
30892;SDS011;17595;50.884;4.346;2023-03-14T15:42:08;3.28;;;0.60;;
30892;SDS011;17595;50.884;4.346;2023-03-14T15:44:34;4.80;;;0.80;;
30892;SDS011;17595;50.884;4.346;2023-03-14T15:47:00;2.40;;;0.47;;
30892;SDS011;17595;50.884;4.346;2023-03-14T15:49:26;6.40;;;0.82;;
30892;SDS011;17595;50.884;4.346;2023-03-14T15:51:52;2.92;;;0.88;;
30892;SDS011;17595;50.884;4.346;2023-03-14T15:54:17;3.08;;;0.80;;
30892;SDS011;17595;50.884;4.346;2023-03-14T15:56:43;4.32;;;0.70;;
30892;SDS011;17595;50.884;4.346;2023-03-14T15:59:08;3.20;;;0.88;;
30892;SDS011;17595;50.884;4.346;2023-03-14T16:01:34;1.38;;;0.60;;
30892;SDS011;17595;50.884;4.346;2023-03-14T16:04:02;2.85;;;1.08;;
30892;SDS011;17595;50.884;4.346;2023-03-14T16:06:28;4.80;;;1.98;;